Wiley Post Will Rogers Memorial Airport Barrow US
ICAO: PABR
IATA:
Category: Medium
Scheduled Services:

Elevation: 44 ft
TransAlt. 18000 ft.

Airport Communications:
ASOS:132.15
ANCHORAGE CNTR:135.3
CTAF:123.6
BARROW RDO:122.2

PABR Zoom In..

If Map Doesn't Load, Click Here

Runways:

(A) RW 07 length 7100 ft width 150 ft
ILS 110.50 / hdg 71

(B) RW 25 length 7100 ft width 150 ft
---- / hdg 251

Location; PABR
Day. 21 / Time. 14.53 Zulu
* Altimeter: 29.99
* Temperature: 01° c. 33.8°f.
* Wind from: 030° Speed 06 kn.
Dewpoint: 00° c.
Visibility: 9 Statute Miles.
Clouds: Overcast 700 ft.

PABR 211453Z 03006KT 9SM OVC007 01/00 A2999 RMK SLP155 T00060000 58003 VIA AUTODIAL


Wind From 030°
Speed 06 kn.

 
 
jpsmedia.com for Web Design worldairports.se 2018   terms of use